Jeddito, Arizona
Current Conditions -  °F | °C
As of 8:56 AM on Thursday 30 Oct 2014 (Local Time) from KINW Reporting Station
Clear Clear  
Wind Chill: 47°   Ceiling: Unl
Heat Index: 49°   Visibility: 10mi
Dew Point: 27°   Wind: 6mph
Humidity: 43%   Direction: 100°E
Pressure: 30.34"   Gusts: NA
Location:  35.7968°N, 110.199°W
Report Text: KINW 301556Z AUTO 10005KT 10SM CLR 09/M03 A3034 RMK AO2 SLP256 T00941028
Loading
Personal Weather Stations






























Interactive Weather Map
Tropical Storm Tracking
New forecast layout! Learn more

10-Day Weather Forecast

Advertisements
Track Severe Weather on mobile